createdAt,value
2023-07-31T00:50:48.788Z,100.00
2023-07-31T01:17:12.297Z,100.00
2023-07-31T02:00:29.844Z,100.00
2023-07-31T02:06:59.517Z,100.00
2023-07-31T02:18:48.912Z,100.00
2023-07-31T02:24:55.421Z,100.00
2023-07-31T02:27:39.764Z,100.00
2023-07-31T02:30:26.661Z,100.00
2023-07-31T02:35:42.428Z,100.00
2023-07-31T02:38:31.530Z,100.00
2023-07-31T02:41:26.666Z,100.00
2023-07-31T02:44:21.163Z,100.00
2023-07-31T02:47:13.924Z,100.00
2023-07-31T02:50:15.547Z,100.00
2023-07-31T02:52:58.394Z,100.00
2023-07-31T02:55:32.544Z,100.00
2023-07-31T02:58:07.516Z,100.00
2023-07-31T03:00:45.624Z,100.00
2023-07-31T03:03:22.427Z,100.00
2023-07-31T03:06:09.513Z,100.00
2023-07-31T03:08:45.737Z,100.00
2023-07-31T03:11:21.082Z,100.00
2023-07-31T03:13:50.368Z,100.00
2023-07-31T03:16:18.566Z,100.00
2023-07-31T03:18:52.425Z,100.00
2023-07-31T03:21:25.506Z,100.00
2023-07-31T03:23:54.898Z,100.00
2023-07-31T03:26:26.499Z,100.00
2023-07-31T03:28:54.601Z,100.00
2023-07-31T03:31:23.545Z,100.00
2023-07-31T03:33:51.387Z,100.00
2023-07-31T03:36:22.149Z,100.00
2023-07-31T03:38:49.977Z,100.00
2023-07-31T03:41:19.659Z,100.00
2023-07-31T03:43:57.418Z,100.00
2023-07-31T03:46:28.378Z,100.00
2023-07-31T03:48:56.102Z,100.00
2023-07-31T03:51:25.317Z,100.00
2023-07-31T03:53:56.273Z,100.00
2023-07-31T03:56:37.116Z,100.00
2023-07-31T03:59:13.372Z,100.00
2023-07-31T04:01:55.219Z,100.00
2023-07-31T04:04:25.808Z,100.00
2023-07-31T04:06:59.005Z,100.00
2023-07-31T04:09:33.905Z,100.00
2023-07-31T04:12:03.148Z,100.00
2023-07-31T04:14:33.850Z,100.00
2023-07-31T04:17:01.793Z,100.00
2023-07-31T04:19:30.231Z,100.00
2023-07-31T04:22:02.236Z,100.00
2023-07-31T04:24:43.624Z,100.00
2023-07-31T04:27:27.647Z,100.00
2023-07-31T04:29:57.031Z,100.00
2023-07-31T04:32:30.192Z,100.00
2023-07-31T04:38:39.594Z,100.00
2023-07-31T04:41:24.227Z,100.00
2023-07-31T04:44:08.927Z,100.00
2023-07-31T04:46:59.293Z,100.00
2023-07-31T04:58:30.125Z,100.00
2023-07-31T05:04:39.413Z,100.00
2023-07-31T06:02:42.168Z,100.00
2023-07-31T06:05:13.238Z,99.92
2023-07-31T06:07:59.369Z,100.00
2023-07-31T06:13:28.600Z,98.46
2023-07-31T06:15:56.234Z,95.82
2023-07-31T06:18:23.528Z,94.86
2023-07-31T06:20:55.288Z,92.95
2023-07-31T06:23:24.102Z,93.73
2023-07-31T06:26:01.276Z,96.50
2023-07-31T06:28:30.295Z,95.36
2023-07-31T06:31:11.552Z,97.00
2023-07-31T06:33:43.108Z,96.20
2023-07-31T06:36:11.940Z,95.63
2023-07-31T06:38:42.538Z,94.94
2023-07-31T06:41:14.091Z,97.94
2023-07-31T06:43:47.581Z,98.01
2023-07-31T06:46:14.971Z,95.29
2023-07-31T06:48:44.824Z,93.96
2023-07-31T06:51:14.725Z,94.80
2023-07-31T06:53:46.593Z,92.68
2023-07-31T06:56:14.214Z,93.70
2023-07-31T06:58:41.429Z,90.97
2023-07-31T07:01:10.379Z,87.57
2023-07-31T07:03:37.968Z,86.77
2023-07-31T07:06:05.327Z,87.23
2023-07-31T07:08:32.636Z,85.36
2023-07-31T07:11:00.221Z,84.56
2023-07-31T07:13:27.871Z,83.17
2023-07-31T07:15:56.237Z,83.37
2023-07-31T07:18:23.543Z,84.37
2023-07-31T07:20:53.600Z,85.05
2023-07-31T07:23:21.709Z,83.87
2023-07-31T07:25:49.257Z,84.21
2023-07-31T07:28:16.551Z,83.10
2023-07-31T07:30:51.305Z,81.41
2023-07-31T07:33:20.067Z,79.95
2023-07-31T07:35:47.664Z,79.34
2023-07-31T07:38:19.886Z,77.91
2023-07-31T07:40:51.498Z,78.65
2023-07-31T07:43:18.903Z,80.30
2023-07-31T07:45:46.363Z,80.66
2023-07-31T07:48:13.757Z,80.90
2023-07-31T07:50:41.127Z,79.48
2023-07-31T07:53:08.398Z,79.01
2023-07-31T07:55:36.245Z,81.50
2023-07-31T07:58:08.758Z,81.15
2023-07-31T08:00:36.039Z,83.28
2023-07-31T08:03:03.985Z,83.19
2023-07-31T08:05:34.934Z,83.47
2023-07-31T08:08:02.292Z,84.76
2023-07-31T08:10:30.544Z,86.79
2023-07-31T08:12:59.456Z,88.21
2023-07-31T08:15:27.093Z,87.96
2023-07-31T08:17:56.097Z,87.02
2023-07-31T08:20:23.506Z,87.52
2023-07-31T08:22:58.755Z,91.06
2023-07-31T08:25:26.064Z,91.39
2023-07-31T08:27:53.850Z,91.19
2023-07-31T08:30:22.430Z,91.05
2023-07-31T08:32:50.738Z,89.46
2023-07-31T08:35:18.863Z,88.82
2023-07-31T08:37:47.509Z,89.84
2023-07-31T08:40:18.880Z,88.74
2023-07-31T08:42:54.602Z,87.94
2023-07-31T08:45:22.018Z,86.06
2023-07-31T08:47:51.476Z,86.29
2023-07-31T08:50:22.006Z,86.01
2023-07-31T08:52:52.177Z,85.63
2023-07-31T08:55:26.415Z,85.28
2023-07-31T08:57:58.288Z,85.43
2023-07-31T09:00:27.030Z,83.28
2023-07-31T09:03:03.604Z,82.18
2023-07-31T09:05:32.912Z,85.63
2023-07-31T09:08:03.675Z,84.99
2023-07-31T09:10:32.130Z,84.60
2023-07-31T09:13:00.257Z,85.78
2023-07-31T09:15:37.490Z,88.27
2023-07-31T09:18:07.632Z,88.52
2023-07-31T09:20:35.381Z,90.78
2023-07-31T09:23:10.444Z,91.69
2023-07-31T09:26:07.021Z,90.32
2023-07-31T09:28:34.458Z,90.53
2023-07-31T09:31:01.891Z,91.31
2023-07-31T09:33:32.670Z,92.09
2023-07-31T09:36:11.028Z,91.34
2023-07-31T09:38:42.429Z,91.90
2023-07-31T09:42:15.891Z,90.29
2023-07-31T09:45:46.360Z,93.54
2023-07-31T09:48:19.313Z,97.95
2023-07-31T09:54:21.166Z,100.00
2023-07-31T09:57:31.284Z,99.88
2023-07-31T09:59:59.837Z,99.98
2023-07-31T10:02:58.747Z,100.00
2023-07-31T10:06:26.739Z,100.00
2023-07-31T10:47:03.013Z,100.00
2023-07-31T10:49:33.135Z,100.00
2023-07-31T10:52:27.500Z,100.00
2023-07-31T10:56:07.936Z,100.00
2023-07-31T10:59:14.139Z,100.00
2023-07-31T11:05:12.625Z,100.00
2023-07-31T11:08:15.876Z,100.00
2023-07-31T11:15:07.984Z,100.00
2023-07-31T11:17:57.024Z,100.00
2023-07-31T11:20:45.159Z,100.00
2023-07-31T11:23:13.338Z,100.00
2023-07-31T11:25:55.873Z,100.00
2023-07-31T11:28:36.971Z,100.00
2023-07-31T11:31:25.929Z,100.00
2023-07-31T11:34:24.287Z,100.00
2023-07-31T11:37:00.254Z,100.00
2023-07-31T11:39:44.259Z,100.00
2023-07-31T11:42:28.456Z,100.00
2023-07-31T11:45:11.079Z,100.00
2023-07-31T11:47:46.496Z,100.00
2023-07-31T11:50:36.447Z,100.00
2023-07-31T11:53:08.944Z,100.00
2023-07-31T11:55:37.241Z,100.00
2023-07-31T11:58:06.614Z,100.00
2023-07-31T12:00:36.836Z,100.00
2023-07-31T12:03:04.516Z,100.00
2023-07-31T12:05:32.685Z,100.00
2023-07-31T12:08:20.554Z,100.00
2023-07-31T12:11:12.555Z,100.00
2023-07-31T12:13:42.733Z,100.00
2023-07-31T12:16:13.479Z,100.00
2023-07-31T12:18:41.476Z,100.00
2023-07-31T12:21:12.304Z,100.00
2023-07-31T12:23:47.071Z,100.00
2023-07-31T12:26:17.700Z,100.00
2023-07-31T12:28:49.633Z,97.33
2023-07-31T12:31:22.229Z,98.86
2023-07-31T12:33:51.806Z,98.40
2023-07-31T12:36:23.213Z,99.54
2023-07-31T12:38:51.959Z,96.20
2023-07-31T12:41:19.707Z,95.80
2023-07-31T12:43:47.513Z,94.61
2023-07-31T12:46:15.460Z,93.89
2023-07-31T12:48:43.346Z,93.37
2023-07-31T12:51:11.123Z,92.09
2023-07-31T12:53:38.435Z,88.08
2023-07-31T12:56:06.185Z,89.67
2023-07-31T12:58:33.972Z,88.31
2023-07-31T13:01:02.702Z,89.73
2023-07-31T13:03:30.245Z,92.50
2023-07-31T13:05:58.281Z,92.44
2023-07-31T13:08:25.554Z,92.77
2023-07-31T13:10:52.979Z,93.92
2023-07-31T13:13:20.640Z,94.42
2023-07-31T13:15:48.693Z,92.03
2023-07-31T13:18:16.345Z,91.53
2023-07-31T13:20:43.631Z,90.09
2023-07-31T13:23:10.840Z,89.21
2023-07-31T13:25:38.103Z,89.26
2023-07-31T13:28:05.291Z,89.37
2023-07-31T13:30:32.701Z,85.86
2023-07-31T13:32:59.942Z,82.45
2023-07-31T13:35:27.303Z,79.68
2023-07-31T13:37:54.457Z,78.04
2023-07-31T13:40:22.292Z,82.28
2023-07-31T13:42:49.457Z,83.61
2023-07-31T13:45:16.793Z,82.37
2023-07-31T13:47:44.031Z,80.55
2023-07-31T13:50:11.435Z,78.75
2023-07-31T13:52:38.967Z,79.90
2023-07-31T13:55:06.762Z,79.29
2023-07-31T13:57:34.861Z,77.61
2023-07-31T14:00:02.866Z,74.63
2023-07-31T14:02:32.233Z,74.32
2023-07-31T14:04:59.677Z,74.34
2023-07-31T14:07:27.438Z,71.56
2023-07-31T14:09:55.173Z,73.12
2023-07-31T14:12:39.998Z,73.05
2023-07-31T14:15:10.126Z,73.54
2023-07-31T14:17:37.512Z,72.31
2023-07-31T14:20:05.842Z,72.35
2023-07-31T14:22:34.694Z,72.62
2023-07-31T14:25:02.910Z,69.73
2023-07-31T14:27:30.590Z,67.52
2023-07-31T14:29:58.018Z,64.75
2023-07-31T14:32:26.051Z,61.95
2023-07-31T14:34:55.186Z,61.57
2023-07-31T14:37:23.238Z,61.44
2023-07-31T14:39:51.960Z,62.19
2023-07-31T14:42:19.927Z,63.00
2023-07-31T14:44:47.876Z,62.93
2023-07-31T14:47:15.620Z,60.83
2023-07-31T14:49:42.965Z,57.93
2023-07-31T14:52:11.483Z,59.67
2023-07-31T14:54:39.529Z,61.25
2023-07-31T14:57:07.422Z,62.04
2023-07-31T14:59:35.489Z,62.51
2023-07-31T15:02:03.700Z,62.90
2023-07-31T15:04:31.472Z,62.33
2023-07-31T15:06:58.842Z,61.79
2023-07-31T15:09:26.619Z,61.67
2023-07-31T15:11:54.634Z,60.00
2023-07-31T15:14:22.436Z,59.59
2023-07-31T15:16:50.446Z,58.39
2023-07-31T15:19:17.719Z,56.22
2023-07-31T15:21:45.120Z,55.22
2023-07-31T15:24:12.477Z,54.54
2023-07-31T15:26:39.988Z,54.78
2023-07-31T15:29:16.106Z,55.21
2023-07-31T15:31:43.827Z,55.20
2023-07-31T15:34:11.284Z,55.93
2023-07-31T15:36:38.900Z,55.89
2023-07-31T15:39:08.890Z,55.21
2023-07-31T15:41:37.102Z,52.08
2023-07-31T15:44:07.138Z,46.89
2023-07-31T15:46:35.572Z,42.93
2023-07-31T15:49:04.644Z,45.03
2023-07-31T15:51:34.371Z,46.29
2023-07-31T15:54:02.331Z,48.55
2023-07-31T15:56:30.824Z,49.10
2023-07-31T15:58:59.134Z,51.03
2023-07-31T16:01:27.211Z,51.43
2023-07-31T16:03:54.687Z,51.89
2023-07-31T16:06:22.957Z,51.51
2023-07-31T16:08:50.726Z,50.98
2023-07-31T16:11:18.117Z,51.83
2023-07-31T16:13:45.955Z,48.28
2023-07-31T16:16:13.739Z,49.96
2023-07-31T16:18:41.981Z,51.53
2023-07-31T16:21:10.573Z,53.85
2023-07-31T16:23:38.349Z,54.09
2023-07-31T16:26:06.734Z,54.72
2023-07-31T16:28:34.019Z,53.99
2023-07-31T16:31:01.359Z,52.50
2023-07-31T16:33:28.809Z,54.07
2023-07-31T16:35:56.077Z,54.79
2023-07-31T16:38:23.432Z,55.38
2023-07-31T16:40:51.025Z,56.07
2023-07-31T16:43:18.854Z,55.79
2023-07-31T16:45:46.237Z,56.39
2023-07-31T16:48:14.033Z,56.08
2023-07-31T16:50:41.741Z,55.82
2023-07-31T16:53:09.273Z,55.17
2023-07-31T16:55:37.108Z,55.09
2023-07-31T16:58:04.499Z,54.99
2023-07-31T17:00:33.109Z,55.23
2023-07-31T17:03:01.856Z,55.90
2023-07-31T17:05:30.052Z,56.52
2023-07-31T17:07:57.362Z,56.75
2023-07-31T17:10:25.109Z,56.29
2023-07-31T17:12:52.298Z,55.64
2023-07-31T17:15:19.830Z,55.33
2023-07-31T17:17:50.542Z,55.08
2023-07-31T17:20:18.931Z,54.75
2023-07-31T17:22:49.265Z,54.85
2023-07-31T17:25:20.360Z,55.52
2023-07-31T17:27:49.999Z,54.84
2023-07-31T17:30:18.854Z,54.66
2023-07-31T17:32:46.285Z,54.31
2023-07-31T17:35:13.856Z,53.97
2023-07-31T17:37:41.429Z,53.77
2023-07-31T17:40:09.826Z,54.37
2023-07-31T17:42:37.197Z,53.59
2023-07-31T17:45:04.887Z,53.55
2023-07-31T17:47:32.319Z,53.34
2023-07-31T17:49:59.764Z,53.05
2023-07-31T17:52:27.275Z,53.25
2023-07-31T17:54:54.918Z,54.01
2023-07-31T17:57:22.254Z,54.11
2023-07-31T17:59:51.747Z,53.82
2023-07-31T18:02:20.000Z,54.26
2023-07-31T18:04:47.360Z,53.82
2023-07-31T18:07:14.579Z,53.87
2023-07-31T18:09:42.047Z,54.11
2023-07-31T18:12:09.330Z,55.12
2023-07-31T18:14:38.423Z,55.20
2023-07-31T18:17:06.124Z,55.43
2023-07-31T18:19:33.576Z,55.87
2023-07-31T18:22:00.848Z,55.40
2023-07-31T18:24:28.240Z,55.63
2023-07-31T18:26:55.461Z,55.71
2023-07-31T18:29:23.352Z,55.77
2023-07-31T18:31:50.510Z,55.33
2023-07-31T18:34:17.769Z,55.83
2023-07-31T18:36:45.037Z,56.22
2023-07-31T18:39:12.266Z,56.27
2023-07-31T18:41:40.584Z,56.59
2023-07-31T18:44:07.799Z,56.81
2023-07-31T18:46:35.570Z,57.35
2023-07-31T18:49:03.663Z,57.47
2023-07-31T18:51:33.147Z,57.08
2023-07-31T18:54:00.882Z,57.99
2023-07-31T18:56:28.426Z,58.42
2023-07-31T18:58:55.697Z,58.77
2023-07-31T19:01:24.939Z,59.04
2023-07-31T19:03:52.422Z,59.47
2023-07-31T19:06:19.804Z,60.03
2023-07-31T19:08:47.933Z,60.08
2023-07-31T19:11:24.444Z,60.23
2023-07-31T19:14:00.309Z,60.13
2023-07-31T19:16:28.069Z,59.52
2023-07-31T19:18:55.411Z,59.57
2023-07-31T19:21:23.731Z,60.08
2023-07-31T19:23:52.482Z,60.47
2023-07-31T19:26:22.523Z,59.97
2023-07-31T19:28:49.926Z,60.17
2023-07-31T19:31:17.261Z,59.97
2023-07-31T19:33:44.494Z,59.75
2023-07-31T19:36:11.806Z,60.32
2023-07-31T19:38:39.574Z,60.10
2023-07-31T19:41:07.067Z,60.16
2023-07-31T19:43:34.378Z,60.02
2023-07-31T19:46:01.905Z,60.06
2023-07-31T19:48:29.246Z,60.28
2023-07-31T19:50:56.619Z,59.95
2023-07-31T19:53:23.909Z,60.24
2023-07-31T19:55:51.393Z,60.96
2023-07-31T19:58:18.807Z,60.92
2023-07-31T20:00:46.792Z,61.47
2023-07-31T20:03:14.020Z,61.12
2023-07-31T20:05:41.996Z,61.20
2023-07-31T20:08:09.336Z,61.54
2023-07-31T20:10:36.696Z,61.54
2023-07-31T20:13:04.080Z,61.32
2023-07-31T20:15:31.285Z,62.31
2023-07-31T20:17:58.525Z,62.62
2023-07-31T20:20:25.829Z,63.46
2023-07-31T20:22:53.116Z,63.88
2023-07-31T20:25:20.479Z,63.76
2023-07-31T20:27:47.720Z,63.82
2023-07-31T20:30:14.990Z,63.45
2023-07-31T20:32:42.790Z,64.49
2023-07-31T20:35:10.086Z,64.23
2023-07-31T20:37:37.341Z,64.39
2023-07-31T20:40:08.520Z,64.27
2023-07-31T20:42:36.057Z,64.40
2023-07-31T20:45:03.628Z,65.04
2023-07-31T20:47:31.109Z,64.65
2023-07-31T20:50:01.014Z,65.69
2023-07-31T20:52:28.441Z,66.55
2023-07-31T20:54:55.921Z,66.06
2023-07-31T20:57:23.146Z,65.94
2023-07-31T20:59:50.456Z,66.90
2023-07-31T21:02:17.801Z,67.45
2023-07-31T21:04:45.279Z,68.11
2023-07-31T21:07:15.574Z,68.59
2023-07-31T21:09:47.986Z,68.91
2023-07-31T21:12:15.358Z,68.04
2023-07-31T21:14:43.087Z,67.45
2023-07-31T21:17:10.606Z,66.78
2023-07-31T21:19:37.850Z,67.36
2023-07-31T21:22:05.561Z,66.69
2023-07-31T21:24:33.023Z,67.05
2023-07-31T21:27:00.287Z,66.47
2023-07-31T21:29:27.760Z,66.35
2023-07-31T21:31:57.563Z,66.78
2023-07-31T21:34:28.035Z,67.45
2023-07-31T21:36:55.364Z,67.34
2023-07-31T21:39:22.790Z,67.59
2023-07-31T21:41:49.993Z,67.08
2023-07-31T21:44:17.235Z,66.82
2023-07-31T21:46:44.544Z,66.90
2023-07-31T21:49:11.929Z,67.53
2023-07-31T21:51:39.077Z,67.17
2023-07-31T21:54:06.420Z,67.08
2023-07-31T21:56:33.575Z,67.99
2023-07-31T21:59:00.767Z,68.29
2023-07-31T22:01:28.206Z,68.66
2023-07-31T22:03:55.458Z,68.54
2023-07-31T22:06:22.660Z,67.07
2023-07-31T22:08:49.846Z,67.01
2023-07-31T22:11:17.038Z,66.36
2023-07-31T22:13:44.219Z,65.15
2023-07-31T22:16:11.464Z,65.27
2023-07-31T22:18:38.833Z,64.76
2023-07-31T22:21:06.620Z,64.75
2023-07-31T22:23:34.112Z,65.92
2023-07-31T22:26:01.296Z,65.65
2023-07-31T22:28:28.537Z,64.89
2023-07-31T22:30:55.814Z,65.05
2023-07-31T22:33:23.000Z,65.59
2023-07-31T22:35:53.317Z,66.19
2023-07-31T22:38:20.966Z,67.15
2023-07-31T22:40:48.228Z,66.85
2023-07-31T22:43:15.902Z,66.28
2023-07-31T22:45:47.222Z,65.89
2023-07-31T22:48:14.827Z,64.95
2023-07-31T22:50:42.051Z,65.13
2023-07-31T22:53:09.227Z,65.13
2023-07-31T22:55:36.733Z,65.04
2023-07-31T22:58:03.915Z,64.62
2023-07-31T23:00:31.228Z,64.11
2023-07-31T23:02:58.698Z,64.02
2023-07-31T23:05:26.166Z,63.62
2023-07-31T23:07:53.530Z,63.89
2023-07-31T23:10:20.785Z,64.70
2023-07-31T23:12:48.110Z,64.95
2023-07-31T23:15:15.437Z,64.72
2023-07-31T23:17:42.655Z,64.54
2023-07-31T23:20:10.208Z,64.22
2023-07-31T23:22:38.216Z,63.72
2023-07-31T23:25:07.393Z,63.11
2023-07-31T23:27:34.608Z,63.14
2023-07-31T23:30:01.822Z,62.88
2023-07-31T23:32:29.031Z,62.90
2023-07-31T23:34:56.262Z,63.30
2023-07-31T23:37:23.605Z,63.14
2023-07-31T23:39:50.721Z,63.65
2023-07-31T23:42:17.969Z,63.65
2023-07-31T23:44:48.707Z,63.24
2023-07-31T23:47:24.156Z,62.63
2023-07-31T23:49:51.517Z,62.86
2023-07-31T23:52:18.763Z,63.63
2023-07-31T23:54:46.165Z,63.64
2023-07-31T23:57:13.515Z,63.26
2023-07-31T23:59:40.696Z,63.42
